Time;durP1;ratioP1;P1;durP2;ratioP2;P2;SDS_P1;SDS_P2;PMS_P1;PMS_P2;Temp;Humidity;BMP_temperature;BMP_pressure;BME280_temperature;BME280_humidity;BME280_pressure;Samples;Min_cycle;Max_cycle;Signal;HPM_P1;HPM_P2
2021/04/12 00:00:22;;;;;;;4.50;4.10;;;6.40;99.90;;;;;;5053541;28;20374;-62
2021/04/12 00:03:01;;;;;;;3.67;3.47;;;6.20;99.90;;;;;;5035952;28;20541;-62
2021/04/12 00:05:42;;;;;;;4.57;4.27;;;6.10;99.90;;;;;;5053821;28;20389;-62
2021/04/12 00:08:07;;;;;;;3.70;3.43;;;6.10;99.90;;;;;;5054118;28;20393;-61
2021/04/12 00:10:38;;;;;;;4.13;3.63;;;5.90;99.90;;;;;;5053719;28;20443;-62
2021/04/12 00:13:11;;;;;;;4.37;4.07;;;5.90;99.90;;;;;;5053150;28;20252;-62
2021/04/12 00:15:55;;;;;;;4.73;4.33;;;5.90;99.90;;;;;;5053100;28;20432;-61
2021/04/12 00:18:37;;;;;;;4.20;3.90;;;6.00;99.90;;;;;;5053580;28;20447;-61
2021/04/12 00:21:19;;;;;;;4.63;4.33;;;6.00;99.90;;;;;;5053457;28;20411;-61
2021/04/12 00:23:51;;;;;;;3.60;3.40;;;5.80;99.90;;;;;;5053357;28;20758;-60
2021/04/12 00:26:22;;;;;;;4.97;4.57;;;5.80;99.90;;;;;;5053027;28;20854;-57
2021/04/12 00:28:53;;;;;;;4.53;4.13;;;5.90;99.90;;;;;;5052799;28;20441;-60
2021/04/12 00:31:52;;;;;;;4.47;4.07;;;5.80;99.90;;;;;;5053228;28;20794;-58
2021/04/12 00:34:40;;;;;;;5.40;4.60;;;5.70;99.90;;;;;;5052257;28;20400;-60
2021/04/12 00:37:12;;;;;;;4.40;4.10;;;5.80;99.90;;;;;;5053335;28;20370;-59
2021/04/12 00:40:08;;;;;;;5.30;4.60;;;5.80;99.90;;;;;;5035991;28;20404;-57
2021/04/12 00:42:40;;;;;;;4.73;4.33;;;5.80;99.90;;;;;;5052777;28;20780;-59
2021/04/12 00:45:25;;;;;;;4.67;4.37;;;5.80;99.90;;;;;;5052835;28;21015;-60
2021/04/12 00:48:28;;;;;;;5.10;4.70;;;5.70;99.90;;;;;;5052808;28;20413;-58
2021/04/12 00:51:08;;;;;;;5.17;4.53;;;5.70;99.90;;;;;;5053090;28;20774;-60
2021/04/12 00:53:54;;;;;;;5.93;5.33;;;5.70;99.90;;;;;;5053092;28;20389;-60
2021/04/12 00:56:46;;;;;;;5.47;5.00;;;5.70;99.90;;;;;;5052673;28;20420;-58
2021/04/12 00:59:32;;;;;;;5.50;5.10;;;5.60;99.90;;;;;;5049121;28;20416;-59
2021/04/12 01:02:18;;;;;;;5.37;4.87;;;5.50;99.90;;;;;;5052960;28;20816;-59
2021/04/12 01:04:53;;;;;;;5.10;4.70;;;5.60;99.90;;;;;;5053001;28;20385;-60
2021/04/12 01:07:51;;;;;;;4.60;4.20;;;5.40;99.90;;;;;;5053037;28;20842;-60
2021/04/12 01:10:40;;;;;;;6.00;5.50;;;5.40;99.90;;;;;;5052858;28;20440;-60
2021/04/12 01:13:23;;;;;;;5.50;5.10;;;5.50;99.90;;;;;;5052289;28;20498;-61
2021/04/12 01:16:03;;;;;;;6.33;5.83;;;5.60;99.90;;;;;;5052476;28;20453;-60
2021/04/12 01:18:58;;;;;;;5.33;4.93;;;5.50;99.90;;;;;;5052797;28;20428;-60
2021/04/12 01:21:33;;;;;;;4.70;4.40;;;5.50;99.90;;;;;;5053479;28;20735;-58
2021/04/12 01:24:16;;;;;;;6.70;6.20;;;5.40;99.90;;;;;;5052729;28;20385;-60
2021/04/12 01:27:12;;;;;;;6.90;6.30;;;5.20;99.90;;;;;;5054723;28;20424;-60
2021/04/12 01:29:49;;;;;;;6.17;5.67;;;5.40;99.90;;;;;;5032330;28;20437;-60
2021/04/12 01:32:27;;;;;;;6.50;5.90;;;5.10;99.90;;;;;;5032830;28;20492;-60
2021/04/12 01:35:08;;;;;;;6.57;5.93;;;5.20;99.90;;;;;;5032888;28;20398;-60
2021/04/12 01:37:45;;;;;;;6.03;5.53;;;5.20;99.90;;;;;;5032596;28;20397;-60
2021/04/12 01:40:20;;;;;;;6.43;5.93;;;5.30;99.90;;;;;;5032913;28;20397;-60
2021/04/12 01:42:54;;;;;;;6.33;5.83;;;5.40;99.90;;;;;;5032830;28;20432;-60
2021/04/12 01:45:19;;;;;;;6.90;6.30;;;5.50;99.90;;;;;;5034312;28;20480;-60
2021/04/12 01:47:55;;;;;;;6.30;5.80;;;5.30;99.90;;;;;;5037795;28;20938;-62
2021/04/12 01:50:36;;;;;;;7.10;6.50;;;5.20;99.90;;;;;;5055128;28;20179;-62
2021/04/12 01:53:25;;;;;;;7.10;6.50;;;5.20;99.90;;;;;;5055508;28;20567;-62
2021/04/12 01:56:19;;;;;;;7.60;6.90;;;5.20;99.90;;;;;;5035952;28;20371;-61
2021/04/12 01:59:18;;;;;;;8.60;7.80;;;5.20;99.90;;;;;;5035769;28;20477;-62
2021/04/12 02:02:02;;;;;;;7.67;7.07;;;5.10;99.90;;;;;;5034546;28;20969;-62
2021/04/12 02:04:42;;;;;;;5.63;5.23;;;5.10;99.90;;;;;;5036629;28;20386;-59
2021/04/12 02:07:22;;;;;;;6.70;6.10;;;5.10;99.90;;;;;;5055962;28;20448;-61
2021/04/12 02:10:33;;;;;;;6.43;5.90;;;5.10;99.90;;;;;;5055572;28;20458;-61
2021/04/12 02:13:26;;;;;;;7.03;6.33;;;5.20;99.90;;;;;;5055249;28;20432;-62
2021/04/12 02:16:17;;;;;;;5.50;5.00;;;5.40;99.90;;;;;;5055375;28;20952;-62
2021/04/12 02:18:52;;;;;;;6.50;5.90;;;5.50;99.90;;;;;;5055290;28;20445;-62
2021/04/12 02:21:55;;;;;;;6.67;6.07;;;5.60;99.90;;;;;;5055319;28;20389;-61
2021/04/12 02:25:00;;;;;;;7.20;6.60;;;5.40;99.90;;;;;;5055228;28;20416;-61
2021/04/12 02:27:42;;;;;;;6.73;6.13;;;5.30;99.90;;;;;;5055081;28;20393;-62
2021/04/12 02:30:41;;;;;;;9.03;8.23;;;5.20;99.90;;;;;;5055346;28;20393;-60
2021/04/12 02:33:15;;;;;;;6.10;5.60;;;5.10;99.90;;;;;;5055405;28;20409;-62
2021/04/12 02:35:59;;;;;;;6.97;6.37;;;5.00;99.90;;;;;;5055259;28;20855;-62
2021/04/12 02:38:49;;;;;;;7.63;6.93;;;4.90;99.90;;;;;;5054959;28;20426;-62
2021/04/12 02:41:31;;;;;;;7.00;6.30;;;4.90;99.90;;;;;;5055145;28;20495;-62
2021/04/12 02:44:35;;;;;;;9.30;6.60;;;5.00;99.90;;;;;;5054796;28;20388;-62
2021/04/12 02:47:21;;;;;;;7.03;6.33;;;5.10;99.90;;;;;;5054626;28;20496;-63
2021/04/12 02:50:08;;;;;;;7.77;7.07;;;5.10;99.90;;;;;;5055152;28;20948;-60
2021/04/12 02:52:57;;;;;;;8.57;7.73;;;5.30;99.90;;;;;;5054840;28;21017;-60
2021/04/12 02:55:35;;;;;;;7.63;6.93;;;5.30;99.90;;;;;;5055031;28;20394;-59
2021/04/12 02:58:55;;;;;;;8.67;7.77;;;5.30;99.90;;;;;;5053976;28;20412;-60
2021/04/12 03:01:57;;;;;;;10.00;8.20;;;5.20;99.90;;;;;;5012551;28;20820;-63
2021/04/12 03:04:43;;;;;;;8.40;7.70;;;5.30;99.90;;;;;;5054776;28;20413;-62
2021/04/12 03:07:08;;;;;;;8.50;7.80;;;5.10;99.90;;;;;;5054785;28;20538;-62
2021/04/12 03:10:06;;;;;;;8.93;8.13;;;5.20;99.90;;;;;;5054473;28;20484;-62
2021/04/12 03:13:01;;;;;;;8.10;7.30;;;5.30;99.90;;;;;;5054606;28;20687;-62
2021/04/12 03:15:43;;;;;;;8.20;7.50;;;5.10;99.90;;;;;;5054593;28;20968;-62
2021/04/12 03:18:44;;;;;;;8.33;7.53;;;5.20;99.90;;;;;;5054278;28;20436;-62
2021/04/12 03:21:23;;;;;;;7.20;6.50;;;5.20;99.90;;;;;;5054679;28;20386;-62
2021/04/12 03:24:01;;;;;;;7.03;6.23;;;5.20;99.90;;;;;;5054556;28;20388;-61
2021/04/12 03:27:03;;;;;;;8.27;7.57;;;5.20;99.90;;;;;;5054520;28;20409;-61
2021/04/12 03:30:02;;;;;;;8.30;7.50;;;5.10;99.90;;;;;;5056430;28;20416;-61
2021/04/12 03:32:52;;;;;;;8.17;7.07;;;5.10;99.90;;;;;;5053880;28;20413;-61
2021/04/12 03:36:00;;;;;;;7.07;6.40;;;5.10;99.90;;;;;;5054130;28;20437;-61
2021/04/12 03:39:02;;;;;;;7.30;6.60;;;5.10;99.90;;;;;;5025497;28;20413;-61
2021/04/12 03:41:43;;;;;;;7.27;6.57;;;4.90;99.90;;;;;;5054094;28;20424;-61
2021/04/12 03:44:11;;;;;;;7.50;6.77;;;4.80;99.90;;;;;;5053585;28;20408;-61
2021/04/12 03:46:42;;;;;;;9.33;7.43;;;4.90;99.90;;;;;;5053796;28;20758;-61
2021/04/12 03:49:13;;;;;;;6.40;5.80;;;5.00;99.90;;;;;;5053549;28;20401;-61
2021/04/12 03:52:00;;;;;;;9.77;8.77;;;4.90;99.90;;;;;;5053599;28;20417;-59
2021/04/12 03:54:40;;;;;;;7.63;6.87;;;5.00;99.90;;;;;;5053813;28;20762;-60
2021/04/12 03:57:17;;;;;;;7.47;6.77;;;5.00;99.90;;;;;;5054210;28;20377;-61
2021/04/12 04:00:05;;;;;;;7.40;6.70;;;4.80;99.90;;;;;;5053220;28;20440;-62
2021/04/12 04:02:43;;;;;;;7.73;6.83;;;4.90;99.90;;;;;;5053586;28;20756;-61
2021/04/12 04:05:36;;;;;;;7.37;6.73;;;5.00;99.90;;;;;;5053432;28;20409;-61
2021/04/12 04:08:18;;;;;;;7.47;6.87;;;5.10;99.90;;;;;;5053292;28;20385;-61
2021/04/12 04:11:02;;;;;;;8.70;7.80;;;5.00;99.90;;;;;;5053544;28;20420;-61
2021/04/12 04:13:51;;;;;;;7.80;7.00;;;5.10;99.90;;;;;;5052810;28;20441;-61
2021/04/12 04:16:27;;;;;;;7.70;7.00;;;5.10;99.90;;;;;;5053224;28;20394;-61
2021/04/12 04:19:18;;;;;;;8.67;7.90;;;5.00;99.90;;;;;;5053424;28;20440;-61
2021/04/12 04:22:09;;;;;;;10.10;9.03;;;5.10;99.90;;;;;;5053480;28;20462;-61
2021/04/12 04:25:01;;;;;;;8.67;7.80;;;5.20;99.90;;;;;;5053799;28;20382;-61
2021/04/12 04:27:56;;;;;;;11.80;10.60;;;5.30;99.90;;;;;;5053225;28;20408;-60
2021/04/12 04:30:40;;;;;;;9.50;8.60;;;5.10;99.90;;;;;;5052880;28;20385;-61
2021/04/12 04:33:21;;;;;;;9.67;8.77;;;5.10;99.90;;;;;;5053469;28;20428;-61
2021/04/12 04:35:55;;;;;;;10.67;9.60;;;5.10;99.90;;;;;;5053184;28;20770;-60
2021/04/12 04:38:48;;;;;;;10.33;9.40;;;5.20;99.90;;;;;;5053115;28;20403;-61
2021/04/12 04:41:42;;;;;;;8.40;7.60;;;5.20;99.90;;;;;;5053222;28;20369;-61
2021/04/12 04:44:16;;;;;;;9.83;8.93;;;5.00;99.90;;;;;;5051935;28;20449;-60
2021/04/12 04:46:51;;;;;;;11.20;9.93;;;5.10;99.90;;;;;;5036983;28;20405;-61
2021/04/12 04:49:28;;;;;;;8.77;7.97;;;5.10;99.90;;;;;;5033014;28;20382;-61
2021/04/12 04:52:13;;;;;;;11.20;10.10;;;5.20;99.90;;;;;;5033352;28;20457;-61
2021/04/12 04:54:54;;;;;;;9.33;8.47;;;5.30;99.90;;;;;;5033337;28;20390;-59
2021/04/12 04:57:58;;;;;;;8.70;7.90;;;5.10;99.90;;;;;;5033329;28;20777;-62
2021/04/12 05:00:36;;;;;;;9.27;8.43;;;5.10;99.90;;;;;;4972129;28;20551;-62
2021/04/12 05:03:20;;;;;;;9.37;8.37;;;5.10;99.90;;;;;;5026271;28;20500;-62
2021/04/12 05:06:13;;;;;;;8.77;7.97;;;5.10;99.90;;;;;;5043384;28;20425;-62
2021/04/12 05:08:56;;;;;;;7.33;6.63;;;5.00;99.90;;;;;;5053223;28;20389;-62
2021/04/12 05:11:54;;;;;;;8.00;7.27;;;5.00;99.90;;;;;;5052925;28;20389;-61
2021/04/12 05:14:46;;;;;;;7.03;6.43;;;4.90;99.90;;;;;;5052436;28;20409;-61
2021/04/12 05:17:39;;;;;;;9.47;7.13;;;5.00;99.90;;;;;;5052984;28;20425;-61
2021/04/12 05:20:25;;;;;;;6.97;6.37;;;4.90;99.90;;;;;;5053560;28;20441;-61
2021/04/12 05:23:12;;;;;;;10.10;9.20;;;4.80;99.90;;;;;;5056440;28;20429;-59
2021/04/12 05:25:59;;;;;;;8.93;8.13;;;5.00;99.90;;;;;;5056731;28;20511;-60
2021/04/12 05:28:43;;;;;;;9.37;8.47;;;5.00;99.90;;;;;;5056175;28;20381;-60
2021/04/12 05:31:46;;;;;;;10.00;9.10;;;4.90;99.90;;;;;;5056500;28;20881;-60
2021/04/12 05:34:39;;;;;;;9.97;9.07;;;4.80;99.90;;;;;;5056639;28;20468;-60
2021/04/12 05:37:42;;;;;;;10.63;9.53;;;4.80;99.90;;;;;;5056229;28;20393;-60
2021/04/12 05:40:26;;;;;;;10.07;9.17;;;4.80;99.90;;;;;;5058318;28;20447;-60
2021/04/12 05:43:01;;;;;;;10.80;9.80;;;4.70;99.90;;;;;;5055691;28;20455;-60
2021/04/12 05:45:38;;;;;;;11.73;10.57;;;4.80;99.90;;;;;;5055581;28;20393;-61
2021/04/12 05:48:22;;;;;;;12.50;11.40;;;4.90;99.90;;;;;;5056005;28;20472;-60
2021/04/12 05:51:17;;;;;;;13.20;11.80;;;4.60;99.90;;;;;;5055614;28;20425;-61
2021/04/12 05:54:04;;;;;;;12.20;11.00;;;4.60;99.90;;;;;;5055922;28;20451;-61
2021/04/12 05:56:53;;;;;;;14.13;12.73;;;4.60;99.90;;;;;;5055770;28;20425;-60
2021/04/12 05:59:52;;;;;;;13.67;12.27;;;4.70;99.90;;;;;;5053085;28;20457;-61
2021/04/12 06:02:50;;;;;;;12.20;11.00;;;4.90;99.90;;;;;;5055570;28;20409;-61
2021/04/12 06:05:34;;;;;;;13.23;11.93;;;4.90;99.90;;;;;;5051312;28;20494;-60
2021/04/12 06:08:11;;;;;;;13.27;11.97;;;5.00;99.90;;;;;;5053115;28;20424;-61
2021/04/12 06:11:01;;;;;;;13.23;11.83;;;4.90;99.90;;;;;;5054466;28;20491;-59
2021/04/12 06:14:01;;;;;;;12.20;11.00;;;5.00;99.90;;;;;;5054803;28;20456;-58
2021/04/12 06:16:27;;;;;;;12.47;11.20;;;5.10;99.90;;;;;;5054652;28;20485;-60
2021/04/12 06:19:25;;;;;;;13.53;12.13;;;5.30;99.90;;;;;;5055113;28;20872;-61
2021/04/12 06:22:09;;;;;;;12.77;11.53;;;5.30;99.90;;;;;;5053934;28;20190;-60
2021/04/12 06:25:12;;;;;;;13.37;12.07;;;5.50;99.90;;;;;;5055343;28;20416;-60
2021/04/12 06:28:12;;;;;;;12.13;11.03;;;5.80;99.90;;;;;;5054960;28;20397;-60
2021/04/12 06:30:59;;;;;;;12.07;10.87;;;5.80;99.90;;;;;;5054598;28;20393;-60
2021/04/12 06:33:59;;;;;;;11.80;10.70;;;5.70;99.90;;;;;;5054539;28;20420;-60
2021/04/12 06:36:48;;;;;;;12.03;10.93;;;5.80;99.90;;;;;;5023963;28;20459;-59
2021/04/12 06:39:19;;;;;;;12.30;11.10;;;5.90;99.90;;;;;;5054533;28;20472;-60
2021/04/12 06:42:04;;;;;;;11.10;10.00;;;5.90;99.90;;;;;;5054963;28;20449;-60
2021/04/12 06:44:55;;;;;;;13.17;11.97;;;5.80;99.90;;;;;;5054650;28;20404;-60
2021/04/12 06:47:41;;;;;;;12.40;10.40;;;5.80;99.90;;;;;;5055175;28;20591;-60
2021/04/12 06:50:44;;;;;;;11.83;10.60;;;5.80;99.90;;;;;;5055011;28;20753;-60
2021/04/12 06:53:44;;;;;;;11.03;9.93;;;5.90;99.90;;;;;;5054563;28;20445;-60
2021/04/12 06:56:18;;;;;;;12.17;10.97;;;5.90;99.90;;;;;;5055604;28;20667;-58
2021/04/12 06:58:49;;;;;;;11.50;10.40;;;5.70;99.90;;;;;;5054938;28;20448;-60
2021/04/12 07:02:22;;;;;;;10.67;9.63;;;5.60;99.90;;;;;;5054547;28;20385;-60
2021/04/12 07:05:05;;;;;;;13.53;12.23;;;5.60;99.90;;;;;;4942107;28;20523;-60
2021/04/12 07:08:08;;;;;;;11.23;9.87;;;5.90;99.90;;;;;;4991582;28;20474;-60
2021/04/12 07:10:57;;;;;;;16.10;11.07;;;6.00;99.90;;;;;;5034817;28;20389;-60
2021/04/12 07:13:42;;;;;;;14.40;12.37;;;6.00;99.90;;;;;;5034340;28;20537;-60
2021/04/12 07:16:46;;;;;;;12.67;11.43;;;6.00;99.90;;;;;;5054690;28;20400;-60
2021/04/12 07:19:41;;;;;;;12.00;10.17;;;5.90;99.90;;;;;;5030352;28;20844;-60
2021/04/12 07:22:22;;;;;;;13.30;12.10;;;5.90;99.90;;;;;;5054336;28;20503;-60
2021/04/12 07:25:34;;;;;;;14.07;12.00;;;6.10;99.90;;;;;;5054326;28;20899;-59
2021/04/12 07:28:37;;;;;;;14.00;12.70;;;6.00;99.90;;;;;;5034473;28;20425;-60
2021/04/12 07:31:36;;;;;;;12.33;10.60;;;6.10;99.90;;;;;;5054073;28;20396;-60
2021/04/12 07:34:16;;;;;;;15.57;13.73;;;6.00;99.90;;;;;;5054328;28;20385;-59
2021/04/12 07:36:56;;;;;;;13.17;11.97;;;6.00;99.90;;;;;;5053874;28;20900;-59
2021/04/12 07:39:22;;;;;;;15.00;13.23;;;6.00;99.90;;;;;;5053981;28;20528;-59
2021/04/12 07:42:12;;;;;;;14.77;13.27;;;6.10;99.90;;;;;;5056380;28;20981;-59
2021/04/12 07:45:15;;;;;;;14.30;12.57;;;5.90;99.90;;;;;;5054122;28;20266;-59
2021/04/12 07:47:59;;;;;;;13.83;12.50;;;6.00;99.90;;;;;;5053919;28;20454;-59
2021/04/12 07:50:46;;;;;;;15.50;13.23;;;6.00;99.90;;;;;;5053547;28;20400;-58
2021/04/12 07:53:41;;;;;;;16.57;14.70;;;6.10;99.90;;;;;;5053906;28;20434;-59
2021/04/12 07:56:44;;;;;;;15.47;13.97;;;6.20;99.90;;;;;;5053664;28;20389;-58
2021/04/12 07:59:31;;;;;;;17.87;15.87;;;6.40;99.90;;;;;;5053458;28;20492;-60
2021/04/12 08:02:34;;;;;;;13.23;11.83;;;6.60;99.90;;;;;;5080785;22;20433;-54
2021/04/12 08:05:30;;;;;;;15.20;13.70;;;6.60;99.90;;;;;;5033322;28;20509;-53
2021/04/12 08:08:20;;;;;;;16.57;14.97;;;6.60;99.90;;;;;;5033064;28;20394;-54
2021/04/12 08:11:23;;;;;;;15.77;13.67;;;6.50;99.90;;;;;;5033874;28;20379;-51
2021/04/12 08:13:54;;;;;;;15.47;14.03;;;6.50;99.90;;;;;;5033021;28;20423;-54
2021/04/12 08:16:50;;;;;;;16.10;14.30;;;6.60;99.90;;;;;;5033629;28;20441;-57
2021/04/12 08:19:34;;;;;;;15.70;14.07;;;6.60;99.90;;;;;;5032779;28;20524;-56
2021/04/12 08:22:38;;;;;;;16.77;15.00;;;6.60;99.90;;;;;;5034011;28;20824;-56
2021/04/12 08:25:44;;;;;;;16.33;14.50;;;6.70;99.90;;;;;;5017203;28;20418;-56
2021/04/12 08:28:34;;;;;;;16.27;14.67;;;6.80;99.90;;;;;;5033421;28;20386;-59
2021/04/12 08:31:32;;;;;;;19.07;16.40;;;6.90;99.90;;;;;;5033454;28;20379;-56
2021/04/12 08:34:49;;;;;;;16.20;14.50;;;7.20;99.90;;;;;;5033189;28;20468;-53
2021/04/12 08:37:39;;;;;;;17.03;15.33;;;7.30;99.90;;;;;;5033716;28;20406;-62
2021/04/12 08:40:33;;;;;;;18.67;16.87;;;7.40;99.90;;;;;;5032655;28;20437;-60
2021/04/12 08:43:01;;;;;;;16.23;14.53;;;7.10;99.90;;;;;;5033185;28;20922;-60
2021/04/12 08:46:19;;;;;;;15.13;13.70;;;7.10;99.90;;;;;;5032836;28;20406;-59
2021/04/12 08:49:00;;;;;;;14.33;12.93;;;7.00;99.90;;;;;;5033391;28;20409;-57
2021/04/12 08:52:04;;;;;;;15.00;13.40;;;6.80;99.90;;;;;;5032996;28;20393;-58
2021/04/12 08:54:39;;;;;;;17.13;13.83;;;6.90;99.90;;;;;;5032640;28;20414;-60
2021/04/12 08:57:29;;;;;;;17.10;14.97;;;7.20;99.90;;;;;;5037308;28;20485;-60
2021/04/12 09:00:28;;;;;;;15.17;13.70;;;7.20;99.90;;;;;;5037967;28;21050;-59
2021/04/12 09:03:22;;;;;;;13.80;11.90;;;7.30;99.90;;;;;;5037728;28;20457;-57
2021/04/12 09:06:00;;;;;;;14.20;12.90;;;7.10;99.90;;;;;;5035469;28;20382;-60
2021/04/12 09:08:43;;;;;;;16.23;12.57;;;7.20;99.90;;;;;;5036525;28;20417;-58
2021/04/12 09:11:28;;;;;;;14.40;12.90;;;7.30;99.90;;;;;;5037275;28;20826;-59
2021/04/12 09:14:06;;;;;;;13.37;11.90;;;7.30;99.90;;;;;;5005194;28;20438;-59
2021/04/12 09:16:38;;;;;;;13.07;11.77;;;7.60;99.90;;;;;;5037729;28;20435;-56
2021/04/12 09:19:06;;;;;;;13.90;12.53;;;7.70;99.90;;;;;;5037661;28;20446;-55
2021/04/12 09:22:16;;;;;;;13.67;12.27;;;7.70;99.90;;;;;;5038482;28;20404;-58
2021/04/12 09:25:03;;;;;;;12.10;11.00;;;7.40;99.90;;;;;;5040431;28;20409;-57
2021/04/12 09:28:04;;;;;;;14.80;11.00;;;7.20;99.90;;;;;;5042129;28;20800;-57
2021/04/12 09:31:00;;;;;;;13.10;11.80;;;7.30;99.90;;;;;;5044735;28;20793;-56
2021/04/12 09:33:53;;;;;;;13.73;10.57;;;7.40;99.90;;;;;;5047914;28;20422;-57
2021/04/12 09:36:50;;;;;;;11.97;10.90;;;7.60;99.90;;;;;;5044062;28;20387;-58
2021/04/12 09:39:42;;;;;;;11.10;10.00;;;7.70;99.90;;;;;;5042942;28;20453;-58
2021/04/12 09:42:38;;;;;;;14.77;9.33;;;8.00;99.90;;;;;;5038273;28;20430;-53
2021/04/12 09:45:41;;;;;;;11.03;8.40;;;8.00;99.90;;;;;;5036276;28;20412;-58
2021/04/12 09:48:45;;;;;;;12.43;8.27;;;8.00;99.90;;;;;;5035489;28;20401;-57
2021/04/12 09:51:48;;;;;;;13.83;10.00;;;8.00;99.90;;;;;;5019263;28;20815;-57
2021/04/12 09:54:43;;;;;;;10.73;9.73;;;7.70;99.90;;;;;;5055917;28;20494;-59
2021/04/12 09:57:39;;;;;;;8.60;7.70;;;7.90;99.90;;;;;;5056630;28;20394;-58
2021/04/12 10:00:35;;;;;;;7.93;7.13;;;7.90;99.90;;;;;;5056527;28;20453;-60
2021/04/12 10:03:50;;;;;;;9.20;7.40;;;7.80;99.90;;;;;;5055912;28;20567;-58
2021/04/12 10:07:00;;;;;;;7.83;6.90;;;7.90;99.90;;;;;;5036360;28;20388;-59
2021/04/12 10:09:50;;;;;;;8.20;7.40;;;8.20;99.90;;;;;;4999115;28;20427;-60
2021/04/12 10:12:30;;;;;;;9.17;6.43;;;8.40;99.90;;;;;;5035608;28;20900;-58
2021/04/12 10:15:10;;;;;;;7.63;6.63;;;8.60;99.90;;;;;;5035838;28;20402;-56
2021/04/12 10:17:57;;;;;;;8.80;6.23;;;8.50;99.90;;;;;;5034727;28;20424;-56
2021/04/12 10:20:30;;;;;;;10.43;6.97;;;8.20;99.90;;;;;;5035773;28;20574;-60
2021/04/12 10:22:58;;;;;;;6.53;5.67;;;8.20;99.90;;;;;;5035820;28;20460;-59
2021/04/12 10:25:36;;;;;;;11.33;6.63;;;8.30;99.90;;;;;;5034886;28;20401;-56
2021/04/12 10:28:09;;;;;;;6.63;5.80;;;8.60;99.90;;;;;;5022512;28;21330;-60
2021/04/12 10:31:01;;;;;;;5.87;4.83;;;8.50;99.90;;;;;;5027181;28;20521;-59
2021/04/12 10:33:56;;;;;;;6.00;5.10;;;8.30;99.90;;;;;;5029084;28;20418;-60
2021/04/12 10:36:27;;;;;;;6.63;5.33;;;8.40;99.90;;;;;;5032202;28;20417;-58
2021/04/12 10:39:03;;;;;;;5.43;4.20;;;8.80;99.90;;;;;;5033357;28;20983;-56
2021/04/12 10:41:44;;;;;;;4.13;3.80;;;9.00;99.90;;;;;;5015543;28;20929;-59
2021/04/12 10:44:28;;;;;;;8.50;4.23;;;9.20;98.50;;;;;;5029522;28;20434;-58
2021/04/12 10:47:10;;;;;;;4.93;4.27;;;9.30;97.60;;;;;;5033424;28;20476;-58
2021/04/12 10:49:52;;;;;;;4.13;3.83;;;9.70;98.10;;;;;;5031232;28;20419;-58
2021/04/12 10:52:24;;;;;;;4.37;3.93;;;10.10;95.80;;;;;;5031049;28;20426;-58
2021/04/12 10:55:04;;;;;;;5.97;4.57;;;10.00;95.50;;;;;;5022946;28;20499;-57
2021/04/12 10:57:35;;;;;;;6.20;3.87;;;9.60;97.30;;;;;;5028940;28;20409;-58
2021/04/12 11:00:22;;;;;;;4.30;3.87;;;9.70;97.30;;;;;;5029411;28;20990;-58
2021/04/12 11:03:09;;;;;;;3.07;2.87;;;9.70;95.40;;;;;;5033430;28;20985;-57
2021/04/12 11:05:36;;;;;;;5.30;4.20;;;9.30;93.60;;;;;;5015119;28;20763;-60
2021/04/12 11:08:46;;;;;;;6.90;4.73;;;9.30;95.50;;;;;;5019979;28;20533;-60
2021/04/12 11:11:30;;;;;;;4.10;3.70;;;9.30;95.30;;;;;;5016415;28;20485;-57
2021/04/12 11:14:08;;;;;;;6.50;4.40;;;9.40;95.90;;;;;;5033219;28;20893;-60
2021/04/12 11:16:46;;;;;;;4.47;4.00;;;9.10;95.70;;;;;;5026837;28;20441;-60
2021/04/12 11:19:38;;;;;;;5.80;3.90;;;8.90;96.80;;;;;;5027265;28;20462;-60
2021/04/12 11:22:31;;;;;;;6.50;4.00;;;8.80;96.80;;;;;;5035027;28;20386;-58
2021/04/12 11:25:02;;;;;;;4.73;3.40;;;9.10;96.60;;;;;;5022062;28;20424;-61
2021/04/12 11:28:00;;;;;;;3.43;3.17;;;10.00;95.20;;;;;;5032066;28;20777;-58
2021/04/12 11:30:28;;;;;;;4.00;3.13;;;10.60;92.40;;;;;;5026548;28;20454;-58
2021/04/12 11:33:24;;;;;;;4.90;3.10;;;11.10;91.80;;;;;;5032445;28;20436;-59
2021/04/12 11:36:09;;;;;;;3.60;3.30;;;10.70;92.30;;;;;;5032902;28;20415;-58
2021/04/12 11:38:40;;;;;;;3.13;2.83;;;9.90;94.00;;;;;;5032256;28;20451;-57
2021/04/12 11:41:12;;;;;;;4.00;3.17;;;9.20;95.20;;;;;;5033262;28;20573;-58
2021/04/12 11:43:40;;;;;;;3.93;2.90;;;9.10;94.30;;;;;;5028209;28;20418;-62
2021/04/12 11:46:37;;;;;;;3.90;2.70;;;9.30;93.40;;;;;;5025353;28;20411;-59
2021/04/12 11:49:23;;;;;;;4.30;3.10;;;9.90;92.00;;;;;;5031670;28;20516;-60
2021/04/12 11:52:07;;;;;;;4.73;2.70;;;9.90;91.70;;;;;;5032667;28;20413;-60
2021/04/12 11:54:48;;;;;;;2.67;2.47;;;10.70;90.00;;;;;;5034921;28;20425;-60
2021/04/12 11:57:36;;;;;;;3.90;2.73;;;11.30;88.60;;;;;;5025936;28;20421;-59
2021/04/12 12:00:24;;;;;;;3.70;2.83;;;12.60;82.40;;;;;;5025308;28;20504;-59
2021/04/12 12:02:57;;;;;;;3.17;2.23;;;12.60;79.00;;;;;;5021226;28;20571;-61
2021/04/12 12:05:34;;;;;;;3.50;2.40;;;12.70;80.30;;;;;;5029146;28;20491;-61
2021/04/12 12:08:20;;;;;;;3.33;2.40;;;12.40;78.10;;;;;;5021786;28;20461;-63
2021/04/12 12:11:01;;;;;;;2.77;2.40;;;12.10;78.50;;;;;;5026586;28;20471;-61
2021/04/12 12:13:53;;;;;;;3.63;2.60;;;11.50;82.60;;;;;;5025730;28;20490;-60
2021/04/12 12:16:28;;;;;;;5.40;2.70;;;10.80;83.60;;;;;;5033048;28;20502;-60
2021/04/12 12:19:20;;;;;;;3.03;2.73;;;10.00;83.80;;;;;;5025330;28;20487;-60
2021/04/12 12:21:52;;;;;;;5.60;2.70;;;9.70;85.30;;;;;;5023180;28;20453;-61
2021/04/12 12:24:46;;;;;;;4.23;3.00;;;9.70;87.70;;;;;;5031559;28;20467;-60
2021/04/12 12:27:22;;;;;;;3.20;2.60;;;9.60;87.30;;;;;;5032683;28;20460;-61
2021/04/12 12:29:51;;;;;;;4.20;3.20;;;9.20;89.10;;;;;;5030761;28;20407;-61
2021/04/12 12:32:20;;;;;;;3.70;3.33;;;9.20;91.10;;;;;;5032119;28;20474;-60
2021/04/12 12:34:54;;;;;;;4.77;2.93;;;9.10;90.10;;;;;;5021584;28;20904;-58
2021/04/12 12:37:30;;;;;;;3.83;2.77;;;9.20;90.40;;;;;;5032285;28;20446;-62
2021/04/12 12:39:57;;;;;;;3.73;2.70;;;9.40;90.50;;;;;;5033122;28;20432;-61
2021/04/12 12:42:40;;;;;;;4.30;2.40;;;9.50;88.30;;;;;;5033110;28;20447;-61
2021/04/12 12:45:11;;;;;;;4.77;2.50;;;9.70;88.50;;;;;;5020911;28;20462;-60
2021/04/12 12:47:39;;;;;;;2.77;2.27;;;10.20;84.30;;;;;;5032066;28;20434;-59
2021/04/12 12:50:12;;;;;;;4.40;2.30;;;11.60;83.10;;;;;;5031174;28;20455;-58
2021/04/12 12:52:51;;;;;;;4.80;2.70;;;12.00;78.90;;;;;;5023835;28;20941;-56
2021/04/12 12:55:25;;;;;;;3.43;2.50;;;11.60;76.90;;;;;;5030835;28;20404;-59
2021/04/12 12:57:52;;;;;;;3.57;2.60;;;11.40;76.70;;;;;;5025807;28;20788;-60
2021/04/12 13:00:21;;;;;;;2.80;2.23;;;11.30;77.90;;;;;;5024957;28;20545;-56
2021/04/12 13:02:48;;;;;;;3.93;2.17;;;11.10;76.50;;;;;;5028658;28;20443;-55
2021/04/12 13:05:22;;;;;;;3.23;2.03;;;11.20;78.40;;;;;;5031696;28;20407;-64
2021/04/12 13:07:49;;;;;;;5.33;2.40;;;11.40;74.20;;;;;;5030554;28;20466;-62
2021/04/12 13:10:38;;;;;;;3.60;2.07;;;12.90;72.20;;;;;;5031879;28;20449;-61
2021/04/12 13:13:33;;;;;;;3.30;1.80;;;15.10;72.50;;;;;;5031989;28;20527;-61
2021/04/12 13:16:18;;;;;;;2.23;2.00;;;17.70;63.10;;;;;;5031277;28;20475;-56
2021/04/12 13:18:57;;;;;;;5.37;1.93;;;18.10;53.70;;;;;;5033666;28;20386;-57
2021/04/12 13:21:27;;;;;;;2.17;1.53;;;16.80;54.50;;;;;;5032587;28;20394;-57
2021/04/12 13:24:38;;;;;;;2.30;1.70;;;14.70;57.90;;;;;;5029390;28;20422;-61
2021/04/12 13:27:13;;;;;;;4.40;2.20;;;13.60;61.00;;;;;;5027524;28;20420;-59
2021/04/12 13:30:06;;;;;;;2.73;1.93;;;12.70;60.30;;;;;;5031622;28;20468;-58
2021/04/12 13:32:40;;;;;;;2.80;2.00;;;13.70;59.10;;;;;;5031160;28;20444;-59
2021/04/12 13:35:11;;;;;;;1.77;1.60;;;15.20;58.30;;;;;;5032297;28;20847;-62
2021/04/12 13:37:43;;;;;;;2.30;1.73;;;16.20;54.00;;;;;;5031264;28;20475;-60
2021/04/12 13:40:22;;;;;;;3.53;2.27;;;16.70;52.80;;;;;;5031824;28;20459;-62
2021/04/12 13:42:53;;;;;;;2.30;2.10;;;15.20;55.80;;;;;;5023734;28;20416;-59
2021/04/12 13:45:44;;;;;;;5.57;2.20;;;14.00;56.70;;;;;;5034025;28;20812;-61
2021/04/12 13:48:24;;;;;;;2.53;2.10;;;14.80;57.50;;;;;;5035144;28;20444;-62
2021/04/12 13:51:06;;;;;;;2.00;1.60;;;14.60;55.90;;;;;;5025456;28;20456;-61
2021/04/12 13:53:46;;;;;;;3.37;2.23;;;15.80;57.50;;;;;;5035961;28;20428;-61
2021/04/12 13:56:21;;;;;;;4.93;2.37;;;16.50;54.00;;;;;;5036180;28;20379;-62
2021/04/12 13:58:47;;;;;;;2.17;2.00;;;;;;;;;;5036032;28;20477;-60
2021/04/12 14:01:22;;;;;;;3.90;2.70;;;;;;;;;;5036205;28;20886;-58
2021/04/12 14:04:15;;;;;;;4.43;2.33;;;;;;;;;;5037735;28;20453;-61
2021/04/12 14:06:56;;;;;;;2.67;1.83;;;;;;;;;;5027157;28;20453;-61
2021/04/12 14:09:42;;;;;;;2.73;2.00;;;11.20;64.70;;;;;;5033583;28;20449;-61
2021/04/12 14:12:48;;;;;;;3.63;2.30;;;11.10;66.10;;;;;;5028740;28;20456;-60
2021/04/12 14:15:16;;;;;;;3.20;2.30;;;11.20;66.60;;;;;;5005720;28;20433;-61
2021/04/12 14:17:55;;;;;;;3.37;2.60;;;11.10;68.50;;;;;;5033199;28;20513;-60
2021/04/12 14:20:38;;;;;;;3.17;2.10;;;11.10;67.10;;;;;;5025899;28;20821;-59
2021/04/12 14:23:15;;;;;;;4.10;2.60;;;11.20;67.90;;;;;;5034117;28;20440;-61
2021/04/12 14:25:43;;;;;;;3.23;2.37;;;11.40;69.10;;;;;;5034859;28;20460;-61